Time;durP1;ratioP1;P1;durP2;ratioP2;P2;SDS_P1;SDS_P2;PMS_P1;PMS_P2;Temp;Humidity;BMP_temperature;BMP_pressure;BME280_temperature;BME280_humidity;BME280_pressure;Samples;Min_cycle;Max_cycle;Signal;HPM_P1;HPM_P2
2022/07/07 00:01:09;;;;;;;2.10;1.27;;;15.70;99.90;;;;;;5075297;28;20127;-74
2022/07/07 00:03:34;;;;;;;2.65;1.35;;;15.80;99.90;;;;;;5075431;28;20124;-74
2022/07/07 00:06:00;;;;;;;0.43;0.43;;;15.80;99.90;;;;;;5075576;28;20044;-74
2022/07/07 00:08:26;;;;;;;0.30;0.30;;;15.80;99.90;;;;;;5075211;28;20119;-75
2022/07/07 00:10:52;;;;;;;2.80;1.77;;;15.80;99.90;;;;;;5075157;28;20468;-74
2022/07/07 00:13:18;;;;;;;1.55;0.70;;;15.70;99.90;;;;;;5075081;28;20051;-75
2022/07/07 00:15:45;;;;;;;1.10;0.55;;;15.80;99.90;;;;;;5075231;28;20041;-74
2022/07/07 00:18:12;;;;;;;2.70;1.30;;;15.80;99.90;;;;;;5075184;28;20052;-75
2022/07/07 00:20:38;;;;;;;0.68;0.65;;;15.80;99.90;;;;;;5075344;28;20056;-74
2022/07/07 00:23:04;;;;;;;0.55;0.52;;;15.80;99.90;;;;;;5075019;28;20032;-74
2022/07/07 00:25:30;;;;;;;0.95;0.82;;;15.80;99.90;;;;;;5074944;28;20036;-74
2022/07/07 00:27:55;;;;;;;0.90;0.85;;;15.90;99.90;;;;;;5074823;28;20105;-74
2022/07/07 00:30:21;;;;;;;0.70;0.70;;;15.80;99.90;;;;;;5074796;28;20580;-74
2022/07/07 00:32:47;;;;;;;3.42;1.70;;;15.80;99.90;;;;;;5073996;28;20051;-74
2022/07/07 00:35:13;;;;;;;0.40;0.40;;;15.80;99.90;;;;;;5074795;28;20048;-73
2022/07/07 00:37:39;;;;;;;0.77;0.73;;;15.80;99.90;;;;;;5074714;28;20112;-74
2022/07/07 00:40:06;;;;;;;0.68;0.55;;;15.80;99.90;;;;;;5074720;28;20040;-74
2022/07/07 00:42:32;;;;;;;0.00;0.00;;;15.80;99.90;;;;;;5074542;28;20089;-74
2022/07/07 00:44:58;;;;;;;0.75;0.52;;;15.70;99.90;;;;;;5074760;28;20048;-74
2022/07/07 00:47:24;;;;;;;1.10;0.80;;;15.80;99.90;;;;;;5074690;28;20457;-74
2022/07/07 00:49:51;;;;;;;0.68;0.47;;;15.80;99.90;;;;;;5074758;28;20041;-73
2022/07/07 00:52:17;;;;;;;1.40;1.30;;;15.70;99.90;;;;;;5074458;28;20098;-74
2022/07/07 00:54:53;;;;;;;0.35;0.35;;;15.70;99.90;;;;;;5074240;28;20503;-73
2022/07/07 00:57:18;;;;;;;;;;;15.70;99.90;;;;;;5074355;28;20088;-73
2022/07/07 00:59:44;;;;;;;6.47;1.83;;;15.60;99.90;;;;;;5074538;28;20013;-73
2022/07/07 01:02:10;;;;;;;2.15;1.63;;;15.60;99.90;;;;;;5073961;28;20044;-73
2022/07/07 01:04:35;;;;;;;0.55;0.52;;;15.60;99.90;;;;;;5074218;28;20045;-73
2022/07/07 01:07:01;;;;;;;3.97;1.02;;;15.60;99.90;;;;;;5074087;28;20051;-73
2022/07/07 01:09:27;;;;;;;0.63;0.55;;;15.60;99.90;;;;;;5073998;28;20514;-74
2022/07/07 01:11:57;;;;;;;1.55;0.52;;;15.70;99.90;;;;;;5073974;28;20477;-73
2022/07/07 01:14:28;;;;;;;0.60;0.35;;;15.60;99.90;;;;;;5074294;28;20048;-73
2022/07/07 01:16:54;;;;;;;0.32;0.32;;;15.60;99.90;;;;;;5056063;28;20036;-73
2022/07/07 01:19:20;;;;;;;0.38;0.28;;;15.60;99.90;;;;;;5073823;28;20471;-73
2022/07/07 01:21:55;;;;;;;0.25;0.25;;;15.60;99.90;;;;;;5073736;28;20163;-73
2022/07/07 01:24:27;;;;;;;0.20;0.20;;;15.60;99.90;;;;;;5073655;28;20044;-73
2022/07/07 01:27:05;;;;;;;0.00;0.00;;;15.60;99.90;;;;;;5074464;28;20128;-73
2022/07/07 01:29:41;;;;;;;0.68;0.43;;;15.60;99.90;;;;;;5074403;28;20052;-73
2022/07/07 01:32:08;;;;;;;0.10;0.10;;;15.50;99.90;;;;;;5073862;28;20040;-73
2022/07/07 01:34:35;;;;;;;0.17;0.10;;;15.60;99.90;;;;;;5073559;28;20127;-74
2022/07/07 01:37:01;;;;;;;0.75;0.15;;;15.60;99.90;;;;;;5073539;28;20036;-73
2022/07/07 01:39:26;;;;;;;24.15;0.85;;;15.50;99.90;;;;;;5039200;28;20052;-74
2022/07/07 01:41:52;;;;;;;0.95;0.20;;;15.50;99.90;;;;;;5073766;28;20498;-73
2022/07/07 01:44:18;;;;;;;0.20;0.10;;;15.50;99.90;;;;;;5073444;28;20033;-74
2022/07/07 01:46:43;;;;;;;0.25;0.25;;;15.50;99.90;;;;;;5073442;28;20458;-74
2022/07/07 01:49:09;;;;;;;0.05;0.05;;;15.50;99.90;;;;;;5073730;28;20040;-74
2022/07/07 01:51:35;;;;;;;0.00;0.00;;;15.40;99.90;;;;;;5073298;28;20111;-74
2022/07/07 01:54:01;;;;;;;0.00;0.00;;;15.40;99.90;;;;;;5073393;28;20120;-74
2022/07/07 01:56:26;;;;;;;0.00;0.00;;;15.40;99.90;;;;;;5073141;28;20048;-73
2022/07/07 01:58:52;;;;;;;0.15;0.10;;;15.40;99.90;;;;;;5073231;28;20048;-73
2022/07/07 02:01:18;;;;;;;0.47;0.22;;;15.40;99.90;;;;;;5073028;28;20099;-73
2022/07/07 02:03:44;;;;;;;0.00;0.00;;;15.40;99.90;;;;;;5055199;28;20049;-74
2022/07/07 02:06:09;;;;;;;0.20;0.10;;;15.40;99.90;;;;;;5073164;28;20058;-74
2022/07/07 02:08:35;;;;;;;3.15;0.43;;;15.40;99.90;;;;;;5073141;28;20041;-74
2022/07/07 02:11:12;;;;;;;0.20;0.20;;;15.40;99.90;;;;;;5073245;28;20441;-74
2022/07/07 02:13:47;;;;;;;0.28;0.22;;;15.40;99.90;;;;;;5073102;28;20080;-73
2022/07/07 02:16:13;;;;;;;1.35;0.95;;;15.30;99.90;;;;;;5072918;28;20124;-74
2022/07/07 02:18:40;;;;;;;0.17;0.13;;;15.40;99.90;;;;;;5073042;28;20049;-73
2022/07/07 02:21:08;;;;;;;0.35;0.35;;;15.30;99.90;;;;;;5073412;28;20380;-74
2022/07/07 02:23:34;;;;;;;0.22;0.22;;;15.30;99.90;;;;;;5073100;28;20102;-74
2022/07/07 02:26:00;;;;;;;0.28;0.28;;;15.30;99.90;;;;;;5055191;28;20044;-74
2022/07/07 02:28:26;;;;;;;0.98;0.45;;;15.30;99.90;;;;;;5072904;28;20044;-74
2022/07/07 02:30:53;;;;;;;0.38;0.32;;;15.30;99.90;;;;;;5072952;28;20071;-75
2022/07/07 02:33:20;;;;;;;0.32;0.30;;;15.30;99.90;;;;;;5072789;28;20117;-74
2022/07/07 02:35:46;;;;;;;0.22;0.10;;;15.40;99.90;;;;;;5072838;28;20475;-74
2022/07/07 02:38:11;;;;;;;0.20;0.20;;;15.30;99.90;;;;;;5072683;28;20048;-74
2022/07/07 02:40:37;;;;;;;0.68;0.52;;;15.40;99.90;;;;;;5072830;28;20470;-75
2022/07/07 02:43:03;;;;;;;0.20;0.13;;;15.40;99.90;;;;;;5072756;28;20044;-75
2022/07/07 02:45:28;;;;;;;0.00;0.00;;;15.40;99.90;;;;;;5072929;28;20051;-75
2022/07/07 02:47:54;;;;;;;0.00;0.00;;;15.40;99.90;;;;;;5072589;28;20083;-74
2022/07/07 02:50:20;;;;;;;0.43;0.35;;;15.40;99.90;;;;;;5073120;28;20075;-75
2022/07/07 02:52:45;;;;;;;0.30;0.30;;;15.40;99.90;;;;;;5072720;28;20512;-75
2022/07/07 02:55:11;;;;;;;0.57;0.38;;;15.50;99.90;;;;;;5072913;28;20041;-75
2022/07/07 02:57:36;;;;;;;0.05;0.05;;;15.40;99.90;;;;;;5076480;28;20060;-74
2022/07/07 03:00:07;;;;;;;0.35;0.32;;;15.40;99.90;;;;;;5076383;28;20131;-75
2022/07/07 03:02:32;;;;;;;0.13;0.13;;;15.40;99.90;;;;;;5076658;28;20390;-75
2022/07/07 03:04:58;;;;;;;11.90;1.13;;;15.30;99.90;;;;;;5076598;28;20036;-74
2022/07/07 03:07:23;;;;;;;0.45;0.28;;;15.30;99.90;;;;;;5076472;28;20098;-75
2022/07/07 03:09:49;;;;;;;0.10;0.10;;;15.30;99.90;;;;;;5058413;28;20128;-74
2022/07/07 03:12:14;;;;;;;0.20;0.20;;;15.30;99.90;;;;;;5076276;28;20044;-74
2022/07/07 03:14:40;;;;;;;0.10;0.05;;;15.30;99.90;;;;;;5076419;28;20044;-75
2022/07/07 03:17:06;;;;;;;0.30;0.17;;;15.30;99.90;;;;;;5058230;28;20041;-75
2022/07/07 03:19:31;;;;;;;0.32;0.32;;;15.30;99.90;;;;;;5076269;28;20487;-75
2022/07/07 03:21:57;;;;;;;0.05;0.05;;;15.30;99.90;;;;;;5076248;28;20043;-75
2022/07/07 03:24:22;;;;;;;0.15;0.15;;;15.30;99.90;;;;;;5075486;28;20487;-75
2022/07/07 03:26:48;;;;;;;0.00;0.00;;;15.30;99.90;;;;;;5075340;28;20048;-75
2022/07/07 03:29:14;;;;;;;0.80;0.38;;;15.20;99.90;;;;;;5075147;28;20036;-75
2022/07/07 03:31:39;;;;;;;9.05;0.25;;;15.30;99.90;;;;;;5075441;28;20041;-75
2022/07/07 03:34:05;;;;;;;0.00;0.00;;;15.30;99.90;;;;;;5075014;28;20047;-75
2022/07/07 03:36:30;;;;;;;1.17;0.50;;;15.20;99.90;;;;;;5075095;28;20041;-75
2022/07/07 03:38:56;;;;;;;0.20;0.10;;;15.20;99.90;;;;;;5075001;28;20036;-75
2022/07/07 03:41:21;;;;;;;0.28;0.22;;;15.20;99.90;;;;;;5075162;28;20051;-75
2022/07/07 03:43:47;;;;;;;0.43;0.38;;;15.20;99.90;;;;;;5075382;28;20045;-74
2022/07/07 03:46:12;;;;;;;0.35;0.35;;;15.20;99.90;;;;;;5076202;28;20410;-74
2022/07/07 03:48:38;;;;;;;0.00;0.00;;;15.20;99.90;;;;;;5076139;28;20048;-74
2022/07/07 03:51:04;;;;;;;0.13;0.13;;;15.20;99.90;;;;;;5076033;28;20041;-74
2022/07/07 03:53:29;;;;;;;0.98;0.88;;;15.20;99.90;;;;;;5075259;28;20037;-73
2022/07/07 03:55:55;;;;;;;0.35;0.22;;;15.20;99.90;;;;;;5075031;28;20040;-74
2022/07/07 03:58:20;;;;;;;0.00;0.00;;;15.10;99.90;;;;;;5074777;28;20060;-74
2022/07/07 04:00:46;;;;;;;4.78;1.90;;;15.10;99.90;;;;;;5074564;28;20082;-74
2022/07/07 04:03:12;;;;;;;0.00;0.00;;;15.10;99.90;;;;;;5074683;28;20097;-74
2022/07/07 04:05:38;;;;;;;0.17;0.17;;;15.00;99.90;;;;;;5074750;28;20041;-74
2022/07/07 04:08:03;;;;;;;0.43;0.10;;;15.10;99.90;;;;;;5073045;28;20182;-74
2022/07/07 04:10:29;;;;;;;0.08;0.05;;;15.00;99.90;;;;;;5074714;28;20052;-74
2022/07/07 04:12:55;;;;;;;0.63;0.30;;;15.00;99.90;;;;;;5074309;28;20071;-74
2022/07/07 04:15:20;;;;;;;0.52;0.30;;;15.00;99.90;;;;;;5074504;28;20064;-75
2022/07/07 04:17:46;;;;;;;0.10;0.10;;;14.90;99.90;;;;;;5074391;28;20036;-74
2022/07/07 04:20:12;;;;;;;0.00;0.00;;;16.00;99.90;;;;;;5074624;28;20482;-74
2022/07/07 04:22:38;;;;;;;0.10;0.10;;;14.90;99.90;;;;;;5074307;28;20044;-74
2022/07/07 04:25:04;;;;;;;0.00;0.00;;;14.90;99.90;;;;;;5056515;28;20078;-74
2022/07/07 04:27:29;;;;;;;2.05;0.88;;;14.90;99.90;;;;;;5074221;28;20079;-75
2022/07/07 04:29:55;;;;;;;0.43;0.43;;;14.90;99.90;;;;;;5074087;28;20041;-75
2022/07/07 04:32:20;;;;;;;2.40;1.20;;;14.90;99.90;;;;;;5074207;28;20075;-75
2022/07/07 04:34:46;;;;;;;1.25;0.52;;;14.80;99.90;;;;;;5074309;28;20052;-75
2022/07/07 04:37:12;;;;;;;0.28;0.28;;;14.80;99.90;;;;;;5073862;28;20478;-75
2022/07/07 04:39:37;;;;;;;0.00;0.00;;;14.80;99.90;;;;;;5073957;28;20037;-75
2022/07/07 04:42:04;;;;;;;4.18;1.08;;;14.70;99.90;;;;;;5073921;28;20044;-75
2022/07/07 04:44:30;;;;;;;0.20;0.20;;;14.70;99.90;;;;;;5073861;28;20036;-75
2022/07/07 04:46:55;;;;;;;0.35;0.28;;;14.60;99.90;;;;;;5074041;28;20445;-75
2022/07/07 04:49:21;;;;;;;1.98;1.35;;;14.60;99.90;;;;;;5073965;28;20106;-75
2022/07/07 04:51:47;;;;;;;0.00;0.00;;;14.60;99.90;;;;;;5073887;28;20459;-75
2022/07/07 04:54:13;;;;;;;0.00;0.00;;;14.60;99.90;;;;;;5073603;28;20036;-75
2022/07/07 04:56:38;;;;;;;0.52;0.52;;;14.60;99.90;;;;;;5073568;28;20174;-75
2022/07/07 04:59:04;;;;;;;0.10;0.10;;;14.60;99.90;;;;;;5073348;28;20127;-75
2022/07/07 05:01:29;;;;;;;1.27;0.20;;;14.60;99.90;;;;;;5073570;28;20087;-75
2022/07/07 05:03:55;;;;;;;0.00;0.00;;;14.70;99.90;;;;;;5073730;28;20049;-75
2022/07/07 05:06:21;;;;;;;1.50;0.52;;;14.70;99.90;;;;;;5073523;28;20051;-75
2022/07/07 05:08:46;;;;;;;0.08;0.08;;;14.80;99.90;;;;;;5072836;28;20072;-75
2022/07/07 05:11:12;;;;;;;0.50;0.50;;;14.90;99.90;;;;;;5070331;28;20401;-75
2022/07/07 05:13:37;;;;;;;2.60;0.77;;;14.90;99.90;;;;;;5070132;28;20044;-75
2022/07/07 05:16:04;;;;;;;0.22;0.22;;;15.10;99.90;;;;;;5070298;28;20049;-75
2022/07/07 05:18:30;;;;;;;0.15;0.15;;;15.00;99.90;;;;;;5069971;28;20040;-75
2022/07/07 05:20:56;;;;;;;1.55;0.52;;;15.00;99.90;;;;;;5070242;28;20127;-75
2022/07/07 05:23:21;;;;;;;0.00;0.00;;;15.00;99.90;;;;;;5069872;28;20049;-75
2022/07/07 05:25:47;;;;;;;0.30;0.28;;;14.80;99.90;;;;;;5070213;28;20051;-75
2022/07/07 05:28:12;;;;;;;1.10;0.88;;;14.70;99.90;;;;;;5069947;28;20048;-75
2022/07/07 05:30:38;;;;;;;0.00;0.00;;;14.60;99.90;;;;;;5070415;28;20048;-74
2022/07/07 05:33:07;;;;;;;0.30;0.22;;;14.60;99.90;;;;;;5069896;28;20047;-75
2022/07/07 05:35:34;;;;;;;0.00;0.00;;;14.60;99.90;;;;;;5072702;28;20041;-75
2022/07/07 05:37:59;;;;;;;0.00;0.00;;;14.60;99.90;;;;;;5072441;28;20529;-75
2022/07/07 05:40:25;;;;;;;0.52;0.52;;;14.50;99.90;;;;;;5072712;28;20105;-75
2022/07/07 05:42:50;;;;;;;1.20;0.40;;;14.40;99.90;;;;;;5072794;28;20072;-75
2022/07/07 05:45:16;;;;;;;0.10;0.10;;;14.40;99.90;;;;;;5072945;28;20060;-75
2022/07/07 05:47:42;;;;;;;1.95;1.15;;;14.40;99.90;;;;;;5072637;28;20080;-75
2022/07/07 05:50:08;;;;;;;0.10;0.10;;;14.40;99.90;;;;;;5072717;28;20537;-75
2022/07/07 05:52:34;;;;;;;1.95;0.82;;;14.40;99.90;;;;;;5072674;28;20036;-75
2022/07/07 05:54:59;;;;;;;0.63;0.52;;;14.50;99.90;;;;;;5072604;28;20556;-75
2022/07/07 05:57:25;;;;;;;0.00;0.00;;;14.40;99.90;;;;;;5072319;28;20403;-75
2022/07/07 05:59:50;;;;;;;2.78;1.27;;;14.50;99.90;;;;;;5072875;28;20045;-74
2022/07/07 06:02:16;;;;;;;0.00;0.00;;;14.50;99.90;;;;;;5072772;28;20044;-75
2022/07/07 06:04:41;;;;;;;0.00;0.00;;;14.70;99.90;;;;;;5055053;28;20036;-75
2022/07/07 06:07:07;;;;;;;0.00;0.00;;;14.50;99.90;;;;;;5072467;28;20040;-75
2022/07/07 06:09:33;;;;;;;0.08;0.08;;;14.70;99.90;;;;;;5072425;28;20033;-74
2022/07/07 06:11:58;;;;;;;2.40;0.43;;;14.70;99.90;;;;;;5072574;28;20170;-75
2022/07/07 06:14:24;;;;;;;2.08;0.80;;;14.70;99.90;;;;;;5072215;28;20041;-75
2022/07/07 06:16:50;;;;;;;0.43;0.32;;;14.80;99.90;;;;;;5071253;28;20129;-75
2022/07/07 06:19:15;;;;;;;2.28;1.30;;;14.90;99.90;;;;;;5071544;28;20040;-75
2022/07/07 06:21:41;;;;;;;0.20;0.10;;;14.90;99.90;;;;;;5071427;28;20047;-75
2022/07/07 06:24:08;;;;;;;0.00;0.00;;;15.00;99.90;;;;;;5071267;28;20052;-75
2022/07/07 06:26:33;;;;;;;0.05;0.05;;;14.90;99.90;;;;;;5071447;28;20072;-75
2022/07/07 06:28:59;;;;;;;0.00;0.00;;;14.80;99.90;;;;;;5071441;28;20473;-75
2022/07/07 06:31:24;;;;;;;0.57;0.45;;;15.50;99.90;;;;;;5073783;28;20552;-75
2022/07/07 06:33:50;;;;;;;5.07;0.28;;;16.50;99.90;;;;;;5075430;28;20437;-75
2022/07/07 06:36:16;;;;;;;0.10;0.10;;;16.70;99.90;;;;;;5075297;28;20083;-75
2022/07/07 06:38:42;;;;;;;1.85;0.47;;;16.90;99.90;;;;;;5070242;28;20399;-75
2022/07/07 06:41:07;;;;;;;0.38;0.15;;;17.30;99.90;;;;;;5062109;28;20621;-75
2022/07/07 06:43:33;;;;;;;0.38;0.35;;;18.10;99.90;;;;;;5058634;28;20072;-75
2022/07/07 06:45:59;;;;;;;6.22;1.55;;;19.10;99.90;;;;;;5055253;28;20041;-75
2022/07/07 06:48:24;;;;;;;0.38;0.38;;;19.80;99.90;;;;;;5058462;28;20036;-75
2022/07/07 06:50:50;;;;;;;0.25;0.10;;;20.10;99.90;;;;;;5064805;28;20494;-75
2022/07/07 06:53:16;;;;;;;1.83;0.65;;;19.60;99.90;;;;;;5070829;28;20032;-75
2022/07/07 06:55:42;;;;;;;0.20;0.20;;;19.10;99.90;;;;;;5074955;28;20043;-75
2022/07/07 06:58:08;;;;;;;0.90;0.20;;;18.40;99.90;;;;;;5074114;28;20049;-75
2022/07/07 07:00:34;;;;;;;0.00;0.00;;;17.90;99.90;;;;;;5073402;28;20048;-75
2022/07/07 07:03:00;;;;;;;0.00;0.00;;;17.50;99.90;;;;;;5073545;28;20055;-75
2022/07/07 07:05:26;;;;;;;0.20;0.10;;;17.20;99.90;;;;;;5073634;28;20044;-75
2022/07/07 07:07:52;;;;;;;0.00;0.00;;;17.30;99.90;;;;;;5073421;28;20047;-75
2022/07/07 07:10:17;;;;;;;0.65;0.32;;;17.60;99.90;;;;;;5073309;28;20041;-76
2022/07/07 07:12:43;;;;;;;0.43;0.30;;;17.40;99.90;;;;;;5070403;28;20041;-75
2022/07/07 07:15:10;;;;;;;0.00;0.00;;;17.00;99.90;;;;;;5067239;28;20402;-75
2022/07/07 07:17:36;;;;;;;1.55;0.80;;;16.50;99.90;;;;;;5067542;28;20049;-75
2022/07/07 07:20:02;;;;;;;0.40;0.22;;;16.30;99.90;;;;;;5063791;28;20115;-75
2022/07/07 07:22:34;;;;;;;0.10;0.10;;;16.20;99.90;;;;;;5055590;28;20522;-75
2022/07/07 07:24:59;;;;;;;0.20;0.20;;;16.60;99.90;;;;;;5053415;28;20130;-75
2022/07/07 07:27:25;;;;;;;0.00;0.00;;;17.10;99.90;;;;;;5053180;28;20072;-75
2022/07/07 07:29:50;;;;;;;0.00;0.00;;;17.50;99.90;;;;;;5053111;28;20048;-75
2022/07/07 07:32:16;;;;;;;1.45;0.38;;;17.30;99.90;;;;;;5053051;28;20069;-75
2022/07/07 07:34:41;;;;;;;0.00;0.00;;;16.90;99.90;;;;;;5053254;28;20143;-75
2022/07/07 07:37:07;;;;;;;0.30;0.10;;;16.90;99.90;;;;;;5052774;28;20499;-75
2022/07/07 07:39:34;;;;;;;0.00;0.00;;;17.20;99.90;;;;;;5053012;28;20037;-75
2022/07/07 07:41:59;;;;;;;0.88;0.75;;;17.60;99.90;;;;;;5053924;28;20411;-75
2022/07/07 07:47:09;;;;;;;0.00;0.00;;;19.50;99.90;;;;;;5053063;28;20446;-76
2022/07/07 07:49:34;;;;;;;0.00;0.00;;;20.20;99.90;;;;;;5052637;28;20045;-75
2022/07/07 07:52:00;;;;;;;0.00;0.00;;;20.30;99.90;;;;;;5052943;28;20068;-75
2022/07/07 07:54:26;;;;;;;0.35;0.32;;;20.80;99.90;;;;;;5052880;28;20757;-76
2022/07/07 07:56:51;;;;;;;0.00;0.00;;;21.10;99.90;;;;;;5016266;28;1023727;-75
2022/07/07 07:59:17;;;;;;;0.32;0.25;;;20.80;99.90;;;;;;5033221;28;20049;-76
2022/07/07 08:01:42;;;;;;;2.28;0.75;;;19.90;99.90;;;;;;5050971;28;20568;-75
2022/07/07 08:04:08;;;;;;;0.10;0.10;;;18.80;99.90;;;;;;5051401;28;20110;-75
2022/07/07 08:06:33;;;;;;;0.10;0.10;;;17.30;99.90;;;;;;5051054;28;20044;-76
2022/07/07 08:08:59;;;;;;;0.00;0.00;;;16.40;99.90;;;;;;5051065;28;20131;-77
2022/07/07 08:11:24;;;;;;;0.00;0.00;;;16.20;99.90;;;;;;5051119;28;20045;-76
2022/07/07 08:13:50;;;;;;;0.10;0.10;;;16.00;99.90;;;;;;5050763;28;20041;-76
2022/07/07 08:16:16;;;;;;;0.17;0.10;;;16.00;99.90;;;;;;5032775;28;20497;-76
2022/07/07 08:18:41;;;;;;;0.00;0.00;;;16.20;99.90;;;;;;5032877;28;20040;-76
2022/07/07 08:21:07;;;;;;;0.00;0.00;;;16.50;99.90;;;;;;5051277;28;20434;-75
2022/07/07 08:23:32;;;;;;;0.00;0.00;;;16.70;99.90;;;;;;5050983;28;20044;-75
2022/07/07 08:25:58;;;;;;;0.85;0.75;;;16.60;99.90;;;;;;5050728;28;20121;-75
2022/07/07 08:28:23;;;;;;;0.00;0.00;;;16.60;99.90;;;;;;5050813;28;20071;-75
2022/07/07 08:30:49;;;;;;;0.00;0.00;;;16.50;99.90;;;;;;5050757;28;20163;-75
2022/07/07 08:33:16;;;;;;;0.00;0.00;;;16.60;99.90;;;;;;5050149;28;20087;-75
2022/07/07 08:35:41;;;;;;;0.10;0.10;;;16.90;99.90;;;;;;5048050;28;20041;-75
2022/07/07 08:38:07;;;;;;;0.00;0.00;;;17.50;99.90;;;;;;5047186;28;20048;-75
2022/07/07 08:40:33;;;;;;;0.00;0.00;;;17.40;99.90;;;;;;5048754;28;20041;-75
2022/07/07 08:42:59;;;;;;;0.00;0.00;;;17.10;99.90;;;;;;5050139;28;20099;-75
2022/07/07 08:45:24;;;;;;;0.00;0.00;;;16.80;99.90;;;;;;5050098;28;20048;-75
2022/07/07 08:47:50;;;;;;;0.00;0.00;;;16.70;99.90;;;;;;5031995;28;20072;-75
2022/07/07 08:50:16;;;;;;;1.98;0.63;;;16.80;99.90;;;;;;5049835;28;20075;-75
2022/07/07 08:52:42;;;;;;;2.35;0.95;;;16.90;99.90;;;;;;5049604;28;20106;-75
2022/07/07 08:55:11;;;;;;;0.03;0.03;;;17.10;99.90;;;;;;5049756;28;20049;-75
2022/07/07 08:57:38;;;;;;;0.10;0.10;;;17.10;99.90;;;;;;5056970;28;20082;-75
2022/07/07 09:00:04;;;;;;;1.25;0.30;;;17.20;99.90;;;;;;5069585;28;20443;-75
2022/07/07 09:02:29;;;;;;;0.00;0.00;;;17.50;99.90;;;;;;5069398;28;20537;-74
2022/07/07 09:04:55;;;;;;;0.00;0.00;;;17.40;99.90;;;;;;5070136;28;20048;-75
2022/07/07 09:07:21;;;;;;;0.68;0.68;;;17.40;99.90;;;;;;5069561;28;20491;-75
2022/07/07 09:09:52;;;;;;;0.00;0.00;;;17.30;99.90;;;;;;5069692;28;20044;-75
2022/07/07 09:12:18;;;;;;;17.75;1.30;;;17.60;99.90;;;;;;5069397;28;20040;-74
2022/07/07 09:14:46;;;;;;;0.45;0.30;;;18.50;99.90;;;;;;5069397;28;20086;-75
2022/07/07 09:17:30;;;;;;;0.80;0.65;;;18.70;99.90;;;;;;5069466;28;20120;-74
2022/07/07 09:20:11;;;;;;;0.30;0.30;;;18.20;99.90;;;;;;5051447;28;20415;-75
2022/07/07 09:22:50;;;;;;;0.17;0.10;;;17.90;99.90;;;;;;5068986;28;20444;-75
2022/07/07 09:25:19;;;;;;;0.82;0.50;;;17.50;99.90;;;;;;5069032;28;20323;-75
2022/07/07 09:27:53;;;;;;;0.10;0.10;;;16.80;99.90;;;;;;5068849;28;20071;-74
2022/07/07 09:30:30;;;;;;;0.52;0.30;;;16.80;99.90;;;;;;5068671;28;20040;-75
2022/07/07 09:32:58;;;;;;;0.22;0.22;;;16.70;99.90;;;;;;5070627;28;20101;-75
2022/07/07 09:38:13;;;;;;;;;;;17.50;99.90;;;;;;5071802;28;20054;-74
2022/07/07 09:41:10;;;;;;;0.00;0.00;;;18.30;99.90;;;;;;5071943;28;19924;-75
2022/07/07 09:43:48;;;;;;;0.00;0.00;;;18.60;99.90;;;;;;5071638;28;20048;-75
2022/07/07 09:46:18;;;;;;;0.00;0.00;;;18.40;99.90;;;;;;5071494;28;20040;-75
2022/07/07 09:48:56;;;;;;;0.00;0.00;;;18.30;99.90;;;;;;5071654;28;20410;-75
2022/07/07 09:51:33;;;;;;;0.15;0.10;;;18.10;99.90;;;;;;5071680;28;20049;-75
2022/07/07 09:54:00;;;;;;;0.00;0.00;;;18.50;99.90;;;;;;5071596;28;20041;-75
2022/07/07 09:56:39;;;;;;;0.00;0.00;;;18.60;99.90;;;;;;5071615;28;20044;-75
2022/07/07 09:59:08;;;;;;;0.00;0.00;;;18.50;99.90;;;;;;5071385;28;20078;-75
2022/07/07 10:01:39;;;;;;;0.00;0.00;;;18.00;99.90;;;;;;5072082;28;20438;-76
2022/07/07 10:04:08;;;;;;;0.00;0.00;;;16.90;99.90;;;;;;5071421;28;20035;-76
2022/07/07 10:06:36;;;;;;;0.00;0.00;;;16.00;99.90;;;;;;5071421;28;20098;-76
2022/07/07 10:09:05;;;;;;;0.80;0.20;;;15.90;99.90;;;;;;5071264;28;20040;-75
2022/07/07 10:11:49;;;;;;;0.10;0.08;;;16.00;99.90;;;;;;5072581;28;20048;-75
2022/07/07 10:14:24;;;;;;;0.00;0.00;;;16.20;99.90;;;;;;5091581;28;20044;-75
2022/07/07 10:16:52;;;;;;;0.13;0.13;;;16.50;99.90;;;;;;5091412;28;20075;-75
2022/07/07 10:19:20;;;;;;;0.20;0.20;;;16.70;99.90;;;;;;5091486;28;20078;-75
2022/07/07 10:21:48;;;;;;;0.05;0.05;;;17.10;99.90;;;;;;5091185;28;20043;-75
2022/07/07 10:24:16;;;;;;;0.00;0.00;;;17.30;99.90;;;;;;5091407;28;20044;-76
2022/07/07 10:26:52;;;;;;;0.00;0.00;;;17.60;99.90;;;;;;5091402;28;20052;-76
2022/07/07 10:29:38;;;;;;;0.70;0.63;;;17.90;99.90;;;;;;5091264;28;20070;-76
2022/07/07 10:32:05;;;;;;;0.50;0.47;;;17.70;99.90;;;;;;5091257;28;20055;-76
2022/07/07 10:34:33;;;;;;;0.10;0.10;;;17.50;99.90;;;;;;5091248;28;20040;-76
2022/07/07 10:37:01;;;;;;;0.10;0.08;;;17.80;99.90;;;;;;5091245;28;20040;-76
2022/07/07 10:39:32;;;;;;;1.35;0.57;;;18.10;99.90;;;;;;5090589;28;20079;-76
2022/07/07 10:42:21;;;;;;;0.60;0.52;;;17.70;99.90;;;;;;5091230;28;20177;-76
2022/07/07 10:44:49;;;;;;;1.05;0.85;;;17.10;99.90;;;;;;5091535;28;20127;-75
2022/07/07 10:47:21;;;;;;;0.00;0.00;;;16.40;99.90;;;;;;5091344;28;20544;-76
2022/07/07 10:49:49;;;;;;;0.60;0.60;;;16.00;99.90;;;;;;5091449;28;20044;-76
2022/07/07 10:52:42;;;;;;;3.03;1.23;;;15.80;99.90;;;;;;5091227;28;20356;-76
2022/07/07 10:55:08;;;;;;;0.10;0.08;;;16.00;99.90;;;;;;5077724;28;20052;-76
2022/07/07 10:57:42;;;;;;;0.10;0.10;;;16.40;99.90;;;;;;5091319;28;20563;-76
2022/07/07 11:00:26;;;;;;;0.15;0.15;;;17.00;99.90;;;;;;5091298;28;20044;-76
2022/07/07 11:03:09;;;;;;;8.48;0.15;;;17.50;99.90;;;;;;5091095;28;20036;-76
2022/07/07 11:05:35;;;;;;;0.63;0.13;;;17.50;99.90;;;;;;5090952;28;20044;-76
2022/07/07 11:08:06;;;;;;;0.22;0.22;;;17.40;99.90;;;;;;5091123;28;20044;-75
2022/07/07 11:10:50;;;;;;;0.63;0.45;;;17.10;99.90;;;;;;5073065;28;20044;-75
2022/07/07 11:13:35;;;;;;;0.55;0.55;;;16.70;99.90;;;;;;5077703;28;20040;-76
2022/07/07 11:16:21;;;;;;;0.00;0.00;;;16.90;99.90;;;;;;5067965;28;20076;-75
2022/07/07 11:18:50;;;;;;;0.28;0.28;;;17.00;99.90;;;;;;5070449;28;20105;-75
2022/07/07 11:21:16;;;;;;;4.50;1.45;;;17.50;99.90;;;;;;5053343;28;20053;-76
2022/07/07 11:23:54;;;;;;;1.00;0.68;;;17.50;99.90;;;;;;5071436;28;20053;-75
2022/07/07 11:26:25;;;;;;;0.15;0.15;;;17.40;99.90;;;;;;5071043;28;20585;-76
2022/07/07 11:28:58;;;;;;;0.47;0.40;;;17.30;99.90;;;;;;5071252;28;20095;-76
2022/07/07 11:31:26;;;;;;;0.10;0.10;;;17.20;99.90;;;;;;5071215;28;20041;-75
2022/07/07 11:33:54;;;;;;;6.22;0.80;;;17.30;99.90;;;;;;5071004;28;20114;-75
2022/07/07 11:36:26;;;;;;;0.00;0.00;;;17.30;99.90;;;;;;5070599;28;20045;-76
2022/07/07 11:38:55;;;;;;;1.08;0.30;;;17.50;99.90;;;;;;5069226;28;20093;-76
2022/07/07 11:41:20;;;;;;;5.82;0.65;;;17.50;99.90;;;;;;5069539;28;20041;-76
2022/07/07 11:43:56;;;;;;;2.55;0.43;;;17.40;99.90;;;;;;5069286;28;20044;-76
2022/07/07 11:46:23;;;;;;;3.33;0.80;;;17.40;99.90;;;;;;5069819;28;20052;-75
2022/07/07 11:48:49;;;;;;;0.00;0.00;;;17.40;99.90;;;;;;5069636;28;20536;-75
2022/07/07 11:51:15;;;;;;;1.60;0.93;;;17.80;99.90;;;;;;5069702;28;20045;-76
2022/07/07 11:53:40;;;;;;;3.25;0.95;;;18.30;99.90;;;;;;5069589;28;20045;-76
2022/07/07 11:56:06;;;;;;;0.65;0.38;;;18.30;99.90;;;;;;5068958;28;20097;-75
2022/07/07 11:58:32;;;;;;;0.80;0.70;;;18.50;99.90;;;;;;5054645;28;20059;-76
2022/07/07 12:00:59;;;;;;;0.00;0.00;;;18.90;99.90;;;;;;5050258;28;20064;-76
2022/07/07 12:03:30;;;;;;;0.73;0.73;;;19.20;99.90;;;;;;5049925;28;20354;-75
2022/07/07 12:05:56;;;;;;;0.20;0.20;;;19.30;99.90;;;;;;5049899;28;20056;-75
2022/07/07 12:08:30;;;;;;;0.00;0.00;;;19.60;99.90;;;;;;5050221;28;20454;-75
2022/07/07 12:10:56;;;;;;;3.40;0.75;;;19.90;99.90;;;;;;5050606;28;20045;-75
2022/07/07 12:13:25;;;;;;;1.98;0.93;;;20.20;99.90;;;;;;5050350;28;20060;-75
2022/07/07 12:15:53;;;;;;;0.15;0.03;;;20.40;91.80;;;;;;5050232;28;20144;-75
2022/07/07 12:18:33;;;;;;;0.00;0.00;;;21.20;90.90;;;;;;5049841;28;20049;-76
2022/07/07 12:21:02;;;;;;;1.38;0.30;;;21.50;82.20;;;;;;5031954;28;20136;-75
2022/07/07 12:23:28;;;;;;;2.92;0.90;;;21.30;63.70;;;;;;5049786;28;20080;-74
2022/07/07 12:26:12;;;;;;;0.00;0.00;;;21.10;91.70;;;;;;5049350;28;20060;-75
2022/07/07 12:28:38;;;;;;;0.10;0.10;;;20.90;93.10;;;;;;5047903;28;20406;-75
2022/07/07 12:31:04;;;;;;;2.20;0.82;;;20.40;98.40;;;;;;5049399;28;20328;-75
2022/07/07 12:33:37;;;;;;;1.00;0.63;;;18.90;99.90;;;;;;5031665;28;20485;-75
2022/07/07 12:36:15;;;;;;;0.43;0.32;;;18.20;99.90;;;;;;5031110;28;20084;-75
2022/07/07 12:38:44;;;;;;;1.02;0.55;;;18.20;99.90;;;;;;5049315;28;20049;-74
2022/07/07 12:41:26;;;;;;;0.40;0.28;;;17.90;99.90;;;;;;5049082;28;20155;-76
2022/07/07 12:44:13;;;;;;;0.55;0.47;;;18.20;99.90;;;;;;5049218;28;20056;-74
2022/07/07 12:46:39;;;;;;;1.95;0.43;;;18.30;99.90;;;;;;5048804;28;20048;-75
2022/07/07 12:49:06;;;;;;;0.20;0.20;;;18.50;99.90;;;;;;5031615;28;20052;-74
2022/07/07 12:51:32;;;;;;;0.75;0.73;;;18.30;99.90;;;;;;5049544;28;20127;-75
2022/07/07 12:53:59;;;;;;;1.08;0.98;;;18.40;99.90;;;;;;5049632;28;20076;-75
2022/07/07 12:56:35;;;;;;;0.38;0.38;;;18.60;99.90;;;;;;5049734;28;20080;-74